Terminal Aerodrome Forecast
Issued by NWS Bismarck, ND

Home | Current Version | Previous Version | Text Only | Print | Product List | Glossary On
Versions: 1 2 3 4 5 6 7 8 9 10 11 12 13 14 15 16 17 18
000
FTUS43 KBIS 220344 AAD
TAFBIS
TAF AMD
KBIS 220344Z 2204/2224 05006KT P6SM OVC050
     FM220800 33004KT 2SM BR BKN040
     FM221000 31005KT 1 1/2SM BR VCSH OVC008
     FM221200 33007KT 2SM -RA BR VCSH OVC006
     FM222000 36011KT P6SM VCSH OVC010=

USA.gov is the U.S. government's official web portal to all federal, state and local government web resources and services.